sensor_id;sensor_type;location;lat;lon;timestamp;pressure;altitude;pressure_sealevel;temperature;humidity
65553;BME280;52465;51.560;14.368;2023-03-12T00:00:15;99783.31;;;6.82;67.86
65553;BME280;52465;51.560;14.368;2023-03-12T00:03:02;99786.91;;;6.81;67.89
65553;BME280;52465;51.560;14.368;2023-03-12T00:05:39;99787.88;;;6.80;68.29
65553;BME280;52465;51.560;14.368;2023-03-12T00:08:10;99765.72;;;6.66;68.23
65553;BME280;52465;51.560;14.368;2023-03-12T00:10:52;99782.66;;;6.80;68.37
65553;BME280;52465;51.560;14.368;2023-03-12T00:16:17;99761.34;;;6.67;68.25
65553;BME280;52465;51.560;14.368;2023-03-12T00:18:47;99782.41;;;6.73;67.70
65553;BME280;52465;51.560;14.368;2023-03-12T00:21:12;99744.44;;;6.53;68.01
65553;BME280;52465;51.560;14.368;2023-03-12T00:23:38;99793.50;;;6.75;68.31
65553;BME280;52465;51.560;14.368;2023-03-12T00:26:06;99775.72;;;6.71;67.93
65553;BME280;52465;51.560;14.368;2023-03-12T00:28:33;99774.66;;;6.63;67.91
65553;BME280;52465;51.560;14.368;2023-03-12T00:31:00;99788.44;;;6.74;68.57
65553;BME280;52465;51.560;14.368;2023-03-12T00:33:26;99748.44;;;6.47;68.25
65553;BME280;52465;51.560;14.368;2023-03-12T00:35:54;99718.81;;;6.30;68.26
65553;BME280;52465;51.560;14.368;2023-03-12T00:38:20;99779.31;;;6.60;68.31
65553;BME280;52465;51.560;14.368;2023-03-12T00:40:46;99798.53;;;6.77;67.78
65553;BME280;52465;51.560;14.368;2023-03-12T00:43:13;99798.69;;;6.75;68.26
65553;BME280;52465;51.560;14.368;2023-03-12T00:45:39;99759.50;;;6.49;68.32
65553;BME280;52465;51.560;14.368;2023-03-12T00:48:05;99772.63;;;6.57;68.65
65553;BME280;52465;51.560;14.368;2023-03-12T00:50:33;99799.78;;;6.73;68.01
65553;BME280;52465;51.560;14.368;2023-03-12T00:52:59;99754.31;;;6.49;68.08
65553;BME280;52465;51.560;14.368;2023-03-12T00:55:25;99740.91;;;6.44;68.36
65553;BME280;52465;51.560;14.368;2023-03-12T00:57:51;99778.72;;;6.66;67.93
65553;BME280;52465;51.560;14.368;2023-03-12T01:00:17;99747.47;;;6.48;67.73
65553;BME280;52465;51.560;14.368;2023-03-12T01:02:42;99795.56;;;6.72;68.20
65553;BME280;52465;51.560;14.368;2023-03-12T01:05:11;99766.88;;;6.54;68.03
65553;BME280;52465;51.560;14.368;2023-03-12T01:07:37;99790.66;;;6.69;68.34
65553;BME280;52465;51.560;14.368;2023-03-12T01:10:03;99793.09;;;6.70;68.34
65553;BME280;52465;51.560;14.368;2023-03-12T01:12:29;99785.16;;;6.72;68.14
65553;BME280;52465;51.560;14.368;2023-03-12T01:14:55;99757.31;;;6.45;68.15
65553;BME280;52465;51.560;14.368;2023-03-12T01:17:21;99782.47;;;6.63;68.02
65553;BME280;52465;51.560;14.368;2023-03-12T01:19:49;99789.44;;;6.63;67.88
65553;BME280;52465;51.560;14.368;2023-03-12T01:22:14;99765.00;;;6.46;68.63
65553;BME280;52465;51.560;14.368;2023-03-12T01:24:39;99785.19;;;6.62;67.74
65553;BME280;52465;51.560;14.368;2023-03-12T01:27:07;99784.41;;;6.52;68.17
65553;BME280;52465;51.560;14.368;2023-03-12T01:29:33;99742.47;;;6.27;68.49
65553;BME280;52465;51.560;14.368;2023-03-12T01:31:58;99795.31;;;6.65;68.39
65553;BME280;52465;51.560;14.368;2023-03-12T01:34:26;99801.31;;;6.66;68.34
65553;BME280;52465;51.560;14.368;2023-03-12T01:36:52;99770.88;;;6.48;67.71
65553;BME280;52465;51.560;14.368;2023-03-12T01:39:17;99787.84;;;6.52;68.45
65553;BME280;52465;51.560;14.368;2023-03-12T01:41:45;99801.31;;;6.66;68.46
65553;BME280;52465;51.560;14.368;2023-03-12T01:44:13;99798.19;;;6.62;68.17
65553;BME280;52465;51.560;14.368;2023-03-12T01:46:40;99789.16;;;6.56;68.23
65553;BME280;52465;51.560;14.368;2023-03-12T01:52:00;99776.06;;;6.48;67.98
65553;BME280;52465;51.560;14.368;2023-03-12T01:57:35;99760.91;;;6.34;67.95
65553;BME280;52465;51.560;14.368;2023-03-12T02:00:07;99788.50;;;6.54;68.42
65553;BME280;52465;51.560;14.368;2023-03-12T02:02:34;99800.94;;;6.60;68.08
65553;BME280;52465;51.560;14.368;2023-03-12T02:05:06;99738.94;;;6.19;67.73
65553;BME280;52465;51.560;14.368;2023-03-12T02:07:34;99787.84;;;6.52;67.98
65553;BME280;52465;51.560;14.368;2023-03-12T02:09:59;99800.13;;;6.60;68.17
65553;BME280;52465;51.560;14.368;2023-03-12T02:12:26;99796.31;;;6.54;68.24
65553;BME280;52465;51.560;14.368;2023-03-12T02:14:51;99764.47;;;6.33;67.81
65553;BME280;52465;51.560;14.368;2023-03-12T02:17:17;99777.88;;;6.38;68.26
65553;BME280;52465;51.560;14.368;2023-03-12T02:22:20;99773.50;;;6.39;67.80
65553;BME280;52465;51.560;14.368;2023-03-12T02:24:53;99800.94;;;6.60;67.72
65553;BME280;52465;51.560;14.368;2023-03-12T02:27:22;99810.41;;;6.52;68.20
65553;BME280;52465;51.560;14.368;2023-03-12T02:29:50;99749.88;;;6.22;68.59
65553;BME280;52465;51.560;14.368;2023-03-12T02:32:20;99795.09;;;6.49;68.01
65553;BME280;52465;51.560;14.368;2023-03-12T02:34:47;99806.03;;;6.52;68.00
65553;BME280;52465;51.560;14.368;2023-03-12T02:37:17;99794.84;;;6.42;68.17
65553;BME280;52465;51.560;14.368;2023-03-12T02:39:53;99817.25;;;6.53;67.89
65553;BME280;52465;51.560;14.368;2023-03-12T02:42:23;99808.38;;;6.46;67.96
65553;BME280;52465;51.560;14.368;2023-03-12T02:44:49;99801.81;;;6.42;68.50
65553;BME280;52465;51.560;14.368;2023-03-12T02:47:15;99804.41;;;6.42;68.19
65553;BME280;52465;51.560;14.368;2023-03-12T02:49:41;99816.72;;;6.49;68.50
65553;BME280;52465;51.560;14.368;2023-03-12T02:52:07;99749.22;;;6.10;68.22
65553;BME280;52465;51.560;14.368;2023-03-12T02:54:34;99798.16;;;6.34;68.35
65553;BME280;52465;51.560;14.368;2023-03-12T02:57:02;99817.53;;;6.50;68.28
65553;BME280;52465;51.560;14.368;2023-03-12T02:59:28;99806.22;;;6.41;68.12
65553;BME280;52465;51.560;14.368;2023-03-12T03:01:55;99814.66;;;6.43;67.59
65553;BME280;52465;51.560;14.368;2023-03-12T03:04:21;99841.47;;;6.53;68.37
65553;BME280;52465;51.560;14.368;2023-03-12T03:06:47;99824.00;;;6.46;68.46
65553;BME280;52465;51.560;14.368;2023-03-12T03:09:15;99833.28;;;6.48;68.16
65553;BME280;52465;51.560;14.368;2023-03-12T03:11:41;99816.47;;;6.33;67.89
65553;BME280;52465;51.560;14.368;2023-03-12T03:14:07;99843.69;;;6.48;68.13
65553;BME280;52465;51.560;14.368;2023-03-12T03:16:33;99840.81;;;6.51;68.07
65553;BME280;52465;51.560;14.368;2023-03-12T03:18:58;99835.47;;;6.43;68.37
65553;BME280;52465;51.560;14.368;2023-03-12T03:21:24;99850.38;;;6.51;68.55
65553;BME280;52465;51.560;14.368;2023-03-12T03:23:50;99848.59;;;6.51;68.43
65553;BME280;52465;51.560;14.368;2023-03-12T03:26:20;99856.69;;;6.48;68.11
65553;BME280;52465;51.560;14.368;2023-03-12T03:28:46;99821.41;;;6.26;67.77
65553;BME280;52465;51.560;14.368;2023-03-12T03:31:12;99829.88;;;6.28;68.44
65553;BME280;52465;51.560;14.368;2023-03-12T03:33:39;99827.16;;;6.30;68.12
65553;BME280;52465;51.560;14.368;2023-03-12T03:36:09;99811.31;;;6.14;68.56
65553;BME280;52465;51.560;14.368;2023-03-12T03:38:35;99810.75;;;6.20;68.38
65553;BME280;52465;51.560;14.368;2023-03-12T03:41:01;99862.16;;;6.45;68.42
65553;BME280;52465;51.560;14.368;2023-03-12T03:43:28;99871.47;;;6.48;68.25
65553;BME280;52465;51.560;14.368;2023-03-12T03:46:01;99875.84;;;6.47;67.95
65553;BME280;52465;51.560;14.368;2023-03-12T03:48:30;99874.22;;;6.46;68.26
65553;BME280;52465;51.560;14.368;2023-03-12T03:51:03;99862.03;;;6.37;68.48
65553;BME280;52465;51.560;14.368;2023-03-12T03:53:30;99873.50;;;6.44;68.08
65553;BME280;52465;51.560;14.368;2023-03-12T03:55:55;99879.41;;;6.46;67.77
65553;BME280;52465;51.560;14.368;2023-03-12T03:58:21;99880.78;;;6.41;67.84
65553;BME280;52465;51.560;14.368;2023-03-12T04:00:46;99832.38;;;6.10;68.23
65553;BME280;52465;51.560;14.368;2023-03-12T04:03:12;99868.47;;;6.33;68.02
65553;BME280;52465;51.560;14.368;2023-03-12T04:05:39;99847.28;;;6.18;67.81
65553;BME280;52465;51.560;14.368;2023-03-12T04:08:11;99881.31;;;6.44;68.06
65553;BME280;52465;51.560;14.368;2023-03-12T04:10:37;99877.09;;;6.33;68.05
65553;BME280;52465;51.560;14.368;2023-03-12T04:13:03;99843.31;;;6.14;68.33
65553;BME280;52465;51.560;14.368;2023-03-12T04:15:28;99886.25;;;6.38;67.92
65553;BME280;52465;51.560;14.368;2023-03-12T04:17:54;99858.63;;;6.17;68.28
65553;BME280;52465;51.560;14.368;2023-03-12T04:20:22;99867.28;;;6.18;68.28
65553;BME280;52465;51.560;14.368;2023-03-12T04:22:47;99911.84;;;6.42;67.99
65553;BME280;52465;51.560;14.368;2023-03-12T04:25:12;99908.00;;;6.36;67.95
65553;BME280;52465;51.560;14.368;2023-03-12T04:27:38;99867.53;;;6.15;68.08
65553;BME280;52465;51.560;14.368;2023-03-12T04:30:04;99911.16;;;6.40;68.43
65553;BME280;52465;51.560;14.368;2023-03-12T04:32:29;99908.16;;;6.35;68.03
65553;BME280;52465;51.560;14.368;2023-03-12T04:35:16;99893.13;;;6.29;68.16
65553;BME280;52465;51.560;14.368;2023-03-12T04:37:41;99917.31;;;6.39;68.26
65553;BME280;52465;51.560;14.368;2023-03-12T04:40:08;99920.88;;;6.38;67.98
65553;BME280;52465;51.560;14.368;2023-03-12T04:42:38;99900.22;;;6.27;68.23
65553;BME280;52465;51.560;14.368;2023-03-12T04:45:04;99881.75;;;6.10;68.15
65553;BME280;52465;51.560;14.368;2023-03-12T04:47:31;99907.75;;;6.30;68.16
65553;BME280;52465;51.560;14.368;2023-03-12T04:49:57;99906.09;;;6.19;67.85
65553;BME280;52465;51.560;14.368;2023-03-12T04:52:25;99902.28;;;6.23;68.28
65553;BME280;52465;51.560;14.368;2023-03-12T04:54:52;99864.66;;;5.98;68.15
65553;BME280;52465;51.560;14.368;2023-03-12T04:57:18;99905.41;;;6.27;68.55
65553;BME280;52465;51.560;14.368;2023-03-12T04:59:44;99897.19;;;6.22;68.20
65553;BME280;52465;51.560;14.368;2023-03-12T05:02:10;99910.19;;;6.31;67.99
65553;BME280;52465;51.560;14.368;2023-03-12T05:04:38;99926.34;;;6.35;67.81
65553;BME280;52465;51.560;14.368;2023-03-12T05:07:04;99906.53;;;6.24;68.17
65553;BME280;52465;51.560;14.368;2023-03-12T05:09:30;99924.03;;;6.32;68.08
65553;BME280;52465;51.560;14.368;2023-03-12T05:11:56;99902.41;;;6.22;68.45
65553;BME280;52465;51.560;14.368;2023-03-12T05:14:22;99874.91;;;6.00;68.06
65553;BME280;52465;51.560;14.368;2023-03-12T05:16:48;99924.84;;;6.32;67.82
65553;BME280;52465;51.560;14.368;2023-03-12T05:19:15;99887.34;;;6.06;67.95
65553;BME280;52465;51.560;14.368;2023-03-12T05:21:41;99929.22;;;6.32;68.07
65553;BME280;52465;51.560;14.368;2023-03-12T05:24:09;99934.41;;;6.32;68.15
65553;BME280;52465;51.560;14.368;2023-03-12T05:26:34;99930.03;;;6.32;68.05
65553;BME280;52465;51.560;14.368;2023-03-12T05:29:01;99915.81;;;6.27;68.19
65553;BME280;52465;51.560;14.368;2023-03-12T05:31:27;99903.50;;;6.19;68.09
65553;BME280;52465;51.560;14.368;2023-03-12T05:33:57;99924.31;;;6.29;68.07
65553;BME280;52465;51.560;14.368;2023-03-12T05:36:23;99922.53;;;6.29;67.72
65553;BME280;52465;51.560;14.368;2023-03-12T05:38:50;99901.31;;;6.15;67.34
65553;BME280;52465;51.560;14.368;2023-03-12T05:41:24;99925.94;;;6.30;68.04
65553;BME280;52465;51.560;14.368;2023-03-12T05:43:52;99910.91;;;6.14;68.27
65553;BME280;52465;51.560;14.368;2023-03-12T05:46:19;99920.88;;;6.19;68.07
65553;BME280;52465;51.560;14.368;2023-03-12T05:48:48;99937.31;;;6.29;67.98
65553;BME280;52465;51.560;14.368;2023-03-12T05:51:13;99949.47;;;6.28;68.08
65553;BME280;52465;51.560;14.368;2023-03-12T05:53:39;99934.41;;;6.22;68.73
65553;BME280;52465;51.560;14.368;2023-03-12T05:56:07;99928.28;;;6.14;68.17
65553;BME280;52465;51.560;14.368;2023-03-12T05:58:34;99937.69;;;6.15;68.26
65553;BME280;52465;51.560;14.368;2023-03-12T06:01:00;99942.63;;;6.18;67.85
65553;BME280;52465;51.560;14.368;2023-03-12T06:03:26;99950.56;;;6.26;68.27
65553;BME280;52465;51.560;14.368;2023-03-12T06:05:52;99931.69;;;6.14;68.30
65553;BME280;52465;51.560;14.368;2023-03-12T06:08:22;99947.56;;;6.21;68.17
65553;BME280;52465;51.560;14.368;2023-03-12T06:10:52;99962.59;;;6.27;68.44
65553;BME280;52465;51.560;14.368;2023-03-12T06:13:20;99892.91;;;5.82;68.11
65553;BME280;52465;51.560;14.368;2023-03-12T06:15:47;99969.88;;;6.23;68.51
65553;BME280;52465;51.560;14.368;2023-03-12T06:18:12;99962.06;;;6.23;67.97
65553;BME280;52465;51.560;14.368;2023-03-12T06:20:38;99982.56;;;6.26;68.08
65553;BME280;52465;51.560;14.368;2023-03-12T06:23:07;99975.88;;;6.24;68.15
65553;BME280;52465;51.560;14.368;2023-03-12T06:25:32;99965.06;;;6.19;67.89
65553;BME280;52465;51.560;14.368;2023-03-12T06:27:58;99988.75;;;6.25;68.54
65553;BME280;52465;51.560;14.368;2023-03-12T06:30:26;99987.91;;;6.25;67.97
65553;BME280;52465;51.560;14.368;2023-03-12T06:32:53;99969.03;;;6.13;68.26
65553;BME280;52465;51.560;14.368;2023-03-12T06:35:19;99896.03;;;5.66;67.86
65553;BME280;52465;51.560;14.368;2023-03-12T06:37:46;99969.72;;;6.15;68.43
65553;BME280;52465;51.560;14.368;2023-03-12T06:40:12;99970.81;;;6.13;68.14
65553;BME280;52465;51.560;14.368;2023-03-12T06:42:38;99972.44;;;6.14;67.79
65553;BME280;52465;51.560;14.368;2023-03-12T06:45:22;99978.47;;;6.14;68.01
65553;BME280;52465;51.560;14.368;2023-03-12T06:47:48;99990.78;;;6.22;68.12
65553;BME280;52465;51.560;14.368;2023-03-12T06:50:14;99989.00;;;6.22;67.81
65553;BME280;52465;51.560;14.368;2023-03-12T06:52:39;99951.94;;;6.01;68.16
65553;BME280;52465;51.560;14.368;2023-03-12T06:55:05;99981.75;;;6.16;68.11
65553;BME280;52465;51.560;14.368;2023-03-12T06:57:31;99991.59;;;6.22;68.11
65553;BME280;52465;51.560;14.368;2023-03-12T06:59:59;99994.19;;;6.22;68.27
65553;BME280;52465;51.560;14.368;2023-03-12T07:02:24;99989.28;;;6.19;68.40
65553;BME280;52465;51.560;14.368;2023-03-12T07:04:50;99984.22;;;6.18;68.12
65553;BME280;52465;51.560;14.368;2023-03-12T07:07:15;99945.97;;;5.89;67.96
65553;BME280;52465;51.560;14.368;2023-03-12T07:09:41;99926.53;;;5.83;68.26
65553;BME280;52465;51.560;14.368;2023-03-12T07:12:07;99981.19;;;6.22;67.68
65553;BME280;52465;51.560;14.368;2023-03-12T07:14:33;99987.50;;;6.20;68.30
65553;BME280;52465;51.560;14.368;2023-03-12T07:16:58;99972.44;;;6.14;68.05
65553;BME280;52465;51.560;14.368;2023-03-12T07:19:27;99937.50;;;5.87;68.03
65553;BME280;52465;51.560;14.368;2023-03-12T07:21:54;100000.22;;;6.23;68.06
65553;BME280;52465;51.560;14.368;2023-03-12T07:24:20;99985.31;;;6.15;67.89
65553;BME280;52465;51.560;14.368;2023-03-12T07:27:04;99995.97;;;6.22;68.35
65553;BME280;52465;51.560;14.368;2023-03-12T07:29:30;99988.19;;;6.22;67.73
65553;BME280;52465;51.560;14.368;2023-03-12T07:31:55;99975.16;;;6.02;68.11
65553;BME280;52465;51.560;14.368;2023-03-12T07:34:24;100001.16;;;6.22;67.99
65553;BME280;52465;51.560;14.368;2023-03-12T07:36:52;100001.16;;;6.22;68.18
65553;BME280;52465;51.560;14.368;2023-03-12T07:39:21;100001.16;;;6.22;68.12
65553;BME280;52465;51.560;14.368;2023-03-12T07:41:47;100003.91;;;6.20;67.60
65553;BME280;52465;51.560;14.368;2023-03-12T07:44:13;100004.72;;;6.21;68.18
65553;BME280;52465;51.560;14.368;2023-03-12T07:46:39;99952.72;;;5.92;67.80
65553;BME280;52465;51.560;14.368;2023-03-12T07:49:04;99998.72;;;6.20;68.11
65553;BME280;52465;51.560;14.368;2023-03-12T07:51:48;99970.94;;;6.01;68.03
65553;BME280;52465;51.560;14.368;2023-03-12T07:54:17;99966.66;;;6.00;68.07
65553;BME280;52465;51.560;14.368;2023-03-12T07:56:42;100004.47;;;6.24;68.48
65553;BME280;52465;51.560;14.368;2023-03-12T07:59:08;100005.41;;;6.23;68.09
65553;BME280;52465;51.560;14.368;2023-03-12T08:01:33;99963.97;;;6.02;68.28
65553;BME280;52465;51.560;14.368;2023-03-12T08:04:00;99927.78;;;5.79;67.79
65553;BME280;52465;51.560;14.368;2023-03-12T08:06:27;100004.59;;;6.22;67.81
65553;BME280;52465;51.560;14.368;2023-03-12T08:08:53;99959.31;;;5.96;68.24
65553;BME280;52465;51.560;14.368;2023-03-12T08:11:21;100002.81;;;6.23;67.92
65553;BME280;52465;51.560;14.368;2023-03-12T08:13:47;99995.00;;;6.23;68.25
65553;BME280;52465;51.560;14.368;2023-03-12T08:16:12;99991.31;;;6.16;68.29
65553;BME280;52465;51.560;14.368;2023-03-12T08:18:38;100007.19;;;6.22;67.87
65553;BME280;52465;51.560;14.368;2023-03-12T08:21:04;99976.41;;;6.08;67.73
65553;BME280;52465;51.560;14.368;2023-03-12T08:23:30;100010.34;;;6.26;68.08
65553;BME280;52465;51.560;14.368;2023-03-12T08:25:57;100000.91;;;6.25;67.92
65553;BME280;52465;51.560;14.368;2023-03-12T08:28:23;99991.19;;;6.27;68.34
65553;BME280;52465;51.560;14.368;2023-03-12T08:30:51;99996.41;;;6.27;67.73
65553;BME280;52465;51.560;14.368;2023-03-12T08:33:18;99989.00;;;6.22;67.99
65553;BME280;52465;51.560;14.368;2023-03-12T08:35:44;99971.75;;;6.12;67.57
65553;BME280;52465;51.560;14.368;2023-03-12T08:38:09;99996.97;;;6.30;67.94
65553;BME280;52465;51.560;14.368;2023-03-12T08:40:35;99975.03;;;6.14;67.67
65553;BME280;52465;51.560;14.368;2023-03-12T08:43:02;99965.06;;;6.09;68.02
65553;BME280;52465;51.560;14.368;2023-03-12T08:45:28;99974.91;;;6.15;68.18
65553;BME280;52465;51.560;14.368;2023-03-12T08:47:54;99999.41;;;6.32;68.05
65553;BME280;52465;51.560;14.368;2023-03-12T08:50:19;99974.50;;;6.20;67.68
65553;BME280;52465;51.560;14.368;2023-03-12T08:52:50;100007.78;;;6.35;68.10
65553;BME280;52465;51.560;14.368;2023-03-12T08:55:16;100001.47;;;6.38;67.60
65553;BME280;52465;51.560;14.368;2023-03-12T08:57:41;100001.47;;;6.38;68.24
65553;BME280;52465;51.560;14.368;2023-03-12T09:00:10;99971.34;;;6.16;67.67
65553;BME280;52465;51.560;14.368;2023-03-12T09:02:43;100002.16;;;6.40;67.77
65553;BME280;52465;51.560;14.368;2023-03-12T09:05:27;100004.63;;;6.42;67.77
65553;BME280;52465;51.560;14.368;2023-03-12T09:08:11;99970.81;;;6.22;68.09
65553;BME280;52465;51.560;14.368;2023-03-12T09:10:48;99990.25;;;6.38;68.08
65553;BME280;52465;51.560;14.368;2023-03-12T09:13:26;100011.06;;;6.47;67.86
65553;BME280;52465;51.560;14.368;2023-03-12T09:15:51;99995.31;;;6.39;68.32
65553;BME280;52465;51.560;14.368;2023-03-12T09:18:17;99987.50;;;6.39;67.45
65553;BME280;52465;51.560;14.368;2023-03-12T09:20:44;99987.50;;;6.39;67.66
65553;BME280;52465;51.560;14.368;2023-03-12T09:23:11;99976.56;;;6.26;67.69
65553;BME280;52465;51.560;14.368;2023-03-12T09:25:44;99985.59;;;6.41;68.07
65553;BME280;52465;51.560;14.368;2023-03-12T09:28:09;99950.69;;;6.15;68.07
65553;BME280;52465;51.560;14.368;2023-03-12T09:30:35;99990.13;;;6.49;68.34
65553;BME280;52465;51.560;14.368;2023-03-12T09:33:00;99979.03;;;6.37;67.57
65553;BME280;52465;51.560;14.368;2023-03-12T09:35:26;99945.91;;;6.20;67.41
65553;BME280;52465;51.560;14.368;2023-03-12T09:37:51;99994.91;;;6.44;67.90
65553;BME280;52465;51.560;14.368;2023-03-12T09:40:20;99969.03;;;6.23;67.67
65553;BME280;52465;51.560;14.368;2023-03-12T09:42:49;100008.06;;;6.52;67.92
65553;BME280;52465;51.560;14.368;2023-03-12T09:45:22;100008.88;;;6.52;67.92
65553;BME280;52465;51.560;14.368;2023-03-12T09:47:52;99950.44;;;6.18;67.99
65553;BME280;52465;51.560;14.368;2023-03-12T09:52:55;99994.09;;;6.53;68.26
65553;BME280;52465;51.560;14.368;2023-03-12T09:55:26;100001.91;;;6.53;67.81
65553;BME280;52465;51.560;14.368;2023-03-12T09:57:53;99989.72;;;6.53;67.81
65553;BME280;52465;51.560;14.368;2023-03-12T10:00:26;99964.78;;;6.31;67.45
65553;BME280;52465;51.560;14.368;2023-03-12T10:03:17;99985.72;;;6.49;68.02
65553;BME280;52465;51.560;14.368;2023-03-12T10:06:07;99995.72;;;6.54;68.15
65553;BME280;52465;51.560;14.368;2023-03-12T10:08:49;99991.34;;;6.54;68.00
65553;BME280;52465;51.560;14.368;2023-03-12T10:11:36;99992.47;;;6.52;67.93
65553;BME280;52465;51.560;14.368;2023-03-12T10:14:42;99954.41;;;6.31;68.11
65553;BME280;52465;51.560;14.368;2023-03-12T10:17:29;99988.59;;;6.56;67.83
65553;BME280;52465;51.560;14.368;2023-03-12T10:29:21;99985.44;;;6.62;69.32
65553;BME280;52465;51.560;14.368;2023-03-12T10:31:53;99987.22;;;6.71;69.45
65553;BME280;52465;51.560;14.368;2023-03-12T10:34:28;99980.81;;;6.75;68.64
65553;BME280;52465;51.560;14.368;2023-03-12T10:44:30;99967.09;;;6.73;69.08
65553;BME280;52465;51.560;14.368;2023-03-12T10:49:45;99949.44;;;6.77;68.51
65553;BME280;52465;51.560;14.368;2023-03-12T10:52:21;99961.72;;;6.84;68.30
65553;BME280;52465;51.560;14.368;2023-03-12T10:54:49;99942.75;;;6.74;68.08
65553;BME280;52465;51.560;14.368;2023-03-12T10:57:16;99917.81;;;6.62;68.38
65553;BME280;52465;51.560;14.368;2023-03-12T10:59:44;99953.81;;;6.86;68.11
65553;BME280;52465;51.560;14.368;2023-03-12T11:02:42;99953.94;;;6.84;68.04
65553;BME280;52465;51.560;14.368;2023-03-12T11:05:20;99949.56;;;6.85;67.48
65553;BME280;52465;51.560;14.368;2023-03-12T11:07:47;99951.06;;;6.87;68.00
65553;BME280;52465;51.560;14.368;2023-03-12T11:15:42;99920.00;;;6.76;67.79
65553;BME280;52465;51.560;14.368;2023-03-12T11:18:33;99935.44;;;6.87;67.28
65553;BME280;52465;51.560;14.368;2023-03-12T11:23:37;99929.28;;;6.88;67.23
65553;BME280;52465;51.560;14.368;2023-03-12T11:26:11;99935.19;;;6.91;67.39
65553;BME280;52465;51.560;14.368;2023-03-12T11:29:25;99916.28;;;6.88;67.21
65553;BME280;52465;51.560;14.368;2023-03-12T11:31:58;99891.81;;;6.72;67.68
65553;BME280;52465;51.560;14.368;2023-03-12T11:34:49;99915.19;;;6.91;67.33
65553;BME280;52465;51.560;14.368;2023-03-12T11:37:49;99918.31;;;6.95;66.93
65553;BME280;52465;51.560;14.368;2023-03-12T11:43:51;99903.50;;;6.95;67.46
65553;BME280;52465;51.560;14.368;2023-03-12T11:46:27;99899.97;;;6.96;67.21
65553;BME280;52465;51.560;14.368;2023-03-12T11:49:11;99890.50;;;6.95;67.51
65553;BME280;52465;51.560;14.368;2023-03-12T11:55:01;99889.41;;;6.98;66.82
65553;BME280;52465;51.560;14.368;2023-03-12T11:57:45;99883.09;;;7.00;67.06
65553;BME280;52465;51.560;14.368;2023-03-12T12:00:18;99869.94;;;7.02;67.43
65553;BME280;52465;51.560;14.368;2023-03-12T12:11:23;99847.72;;;7.07;67.17
65553;BME280;52465;51.560;14.368;2023-03-12T12:16:46;99832.78;;;7.09;67.35
65553;BME280;52465;51.560;14.368;2023-03-12T12:24:54;99827.44;;;7.11;66.97
65553;BME280;52465;51.560;14.368;2023-03-12T12:27:28;99803.91;;;7.03;67.28
65553;BME280;52465;51.560;14.368;2023-03-12T12:30:13;99821.41;;;7.10;67.10
65553;BME280;52465;51.560;14.368;2023-03-12T12:35:37;99796.81;;;6.95;67.17
65553;BME280;52465;51.560;14.368;2023-03-12T12:38:15;99827.44;;;7.11;67.32
65553;BME280;52465;51.560;14.368;2023-03-12T12:41:15;99808.31;;;7.02;66.47
65553;BME280;52465;51.560;14.368;2023-03-12T12:43:50;99819.09;;;7.07;66.99
65553;BME280;52465;51.560;14.368;2023-03-12T12:46:25;99825.63;;;7.11;66.92
65553;BME280;52465;51.560;14.368;2023-03-12T12:48:54;99817.31;;;7.08;67.27
65553;BME280;52465;51.560;14.368;2023-03-12T12:51:24;99816.03;;;7.12;67.03
65553;BME280;52465;51.560;14.368;2023-03-12T12:56:49;99799.22;;;7.06;66.95
65553;BME280;52465;51.560;14.368;2023-03-12T12:59:45;99800.44;;;7.12;67.25
65553;BME280;52465;51.560;14.368;2023-03-12T13:02:20;99781.50;;;6.92;67.13
65553;BME280;52465;51.560;14.368;2023-03-12T13:04:46;99784.50;;;6.97;67.10
65553;BME280;52465;51.560;14.368;2023-03-12T13:09:43;99814.25;;;7.12;67.20
65553;BME280;52465;51.560;14.368;2023-03-12T13:14:47;99769.59;;;6.89;66.97
65553;BME280;52465;51.560;14.368;2023-03-12T13:20:15;99801.94;;;7.14;67.10
65553;BME280;52465;51.560;14.368;2023-03-12T13:26:00;99789.19;;;7.11;67.07
65553;BME280;52465;51.560;14.368;2023-03-12T13:28:35;99782.19;;;7.12;66.99
65553;BME280;52465;51.560;14.368;2023-03-12T13:31:32;99763.38;;;7.00;67.01
65553;BME280;52465;51.560;14.368;2023-03-12T13:33:58;99785.38;;;7.06;66.85
65553;BME280;52465;51.560;14.368;2023-03-12T13:36:35;99796.72;;;7.14;67.23
65553;BME280;52465;51.560;14.368;2023-03-12T13:41:39;99789.88;;;7.13;67.10
65553;BME280;52465;51.560;14.368;2023-03-12T13:49:23;99766.75;;;7.10;67.29
65553;BME280;52465;51.560;14.368;2023-03-12T13:52:14;99768.25;;;7.13;67.67
65553;BME280;52465;51.560;14.368;2023-03-12T13:54:45;99739.06;;;6.92;67.04
65553;BME280;52465;51.560;14.368;2023-03-12T13:59:49;99748.25;;;7.13;66.67
65553;BME280;52465;51.560;14.368;2023-03-12T14:02:28;99738.41;;;7.07;67.39
65553;BME280;52465;51.560;14.368;2023-03-12T14:05:02;99736.16;;;7.12;67.25
65553;BME280;52465;51.560;14.368;2023-03-12T14:08:23;99743.84;;;7.14;67.66
65553;BME280;52465;51.560;14.368;2023-03-12T14:11:03;99724.28;;;7.10;66.74
65553;BME280;52465;51.560;14.368;2023-03-12T14:13:50;99732.63;;;7.13;67.38
65553;BME280;52465;51.560;14.368;2023-03-12T14:16:43;99724.81;;;7.13;67.03
65553;BME280;52465;51.560;14.368;2023-03-12T14:19:15;99725.63;;;7.14;66.58
65553;BME280;52465;51.560;14.368;2023-03-12T14:21:43;99706.66;;;7.04;66.84
65553;BME280;52465;51.560;14.368;2023-03-12T14:24:33;99710.97;;;7.13;67.34
65553;BME280;52465;51.560;14.368;2023-03-12T14:27:01;99709.03;;;7.15;67.72
65553;BME280;52465;51.560;14.368;2023-03-12T14:29:45;99714.31;;;7.05;66.96
65553;BME280;52465;51.560;14.368;2023-03-12T14:32:18;99718.41;;;7.08;66.92
65553;BME280;52465;51.560;14.368;2023-03-12T14:34:57;99688.34;;;6.96;67.05
65553;BME280;52465;51.560;14.368;2023-03-12T14:37:34;99698.78;;;7.13;66.94
65553;BME280;52465;51.560;14.368;2023-03-12T14:40:20;99665.59;;;6.98;66.90
65553;BME280;52465;51.560;14.368;2023-03-12T14:42:47;99687.31;;;7.06;66.88
65553;BME280;52465;51.560;14.368;2023-03-12T14:45:17;99708.22;;;7.14;67.20
65553;BME280;52465;51.560;14.368;2023-03-12T14:47:46;99703.69;;;7.16;67.59